Time;durP1;ratioP1;P1;durP2;ratioP2;P2;SDS_P1;SDS_P2;PMS_P1;PMS_P2;Temp;Humidity;BMP_temperature;BMP_pressure;BME280_temperature;BME280_humidity;BME280_pressure;Samples;Min_cycle;Max_cycle;Signal;HPM_P1;HPM_P2
2021/08/24 00:01:12;;;;;;;3.88;3.40;;;;;;;;;;6178772;28;20035;-84
2021/08/24 00:04:13;;;;;;;5.80;3.72;;;15.30;99.90;;;;;;6145517;28;20112;-80
2021/08/24 00:07:13;;;;;;;5.25;3.85;;;15.10;99.90;;;;;;6178879;28;20376;-82
2021/08/24 00:10:14;;;;;;;5.53;4.15;;;15.30;99.90;;;;;;6178929;28;20095;-80
2021/08/24 00:13:15;;;;;;;5.20;4.13;;;;;;;;;;6178426;28;20085;-82
2021/08/24 00:16:17;;;;;;;4.47;3.65;;;15.10;99.90;;;;;;6178756;28;20046;-80
2021/08/24 00:19:21;;;;;;;4.38;3.90;;;15.50;99.90;;;;;;6178639;28;20030;-80
2021/08/24 00:22:21;;;;;;;4.22;3.70;;;15.00;99.90;;;;;;6161175;28;20493;-82
2021/08/24 00:25:22;;;;;;;4.60;4.13;;;15.20;99.90;;;;;;6178151;28;20023;-79
2021/08/24 00:28:22;;;;;;;4.13;3.72;;;15.20;99.90;;;;;;6178524;28;20061;-79
2021/08/24 00:31:23;;;;;;;5.45;4.20;;;15.30;99.90;;;;;;6161110;28;20034;-79
2021/08/24 00:34:24;;;;;;;5.28;4.15;;;15.20;99.90;;;;;;6178499;28;20034;-83
2021/08/24 00:37:25;;;;;;;5.35;4.70;;;15.30;99.90;;;;;;6178100;28;20106;-80
2021/08/24 00:40:25;;;;;;;5.97;4.35;;;15.20;99.90;;;;;;6160831;28;20026;-81
2021/08/24 00:43:27;;;;;;;4.30;3.83;;;15.40;99.90;;;;;;6177977;28;20042;-80
2021/08/24 00:46:34;;;;;;;6.60;4.47;;;15.30;99.90;;;;;;6178010;28;20442;-81
2021/08/24 00:49:34;;;;;;;7.90;5.63;;;15.50;99.90;;;;;;6160675;28;20317;-80
2021/08/24 00:52:35;;;;;;;6.55;5.88;;;15.40;99.90;;;;;;6160349;28;20369;-80
2021/08/24 00:55:36;;;;;;;6.03;5.50;;;15.50;99.90;;;;;;6160540;28;20027;-81
2021/08/24 00:58:37;;;;;;;6.70;6.03;;;15.50;99.90;;;;;;6143924;28;20038;-82
2021/08/24 01:01:38;;;;;;;6.20;5.60;;;15.70;99.90;;;;;;6160625;28;20027;-80
2021/08/24 01:04:39;;;;;;;5.60;5.05;;;15.70;99.90;;;;;;6177847;28;20273;-82
2021/08/24 01:07:45;;;;;;;5.18;4.15;;;16.00;99.90;;;;;;6160371;28;20027;-80
2021/08/24 01:10:50;;;;;;;3.20;2.88;;;16.00;99.90;;;;;;6160068;28;20457;-80
2021/08/24 01:14:11;;;;;;;3.33;3.03;;;16.20;99.90;;;;;;6159977;28;20019;-82
2021/08/24 01:17:21;;;;;;;4.95;3.60;;;16.30;99.90;;;;;;6176839;28;20046;-83
2021/08/24 01:20:29;;;;;;;4.20;3.80;;;16.50;99.90;;;;;;6159893;28;20058;-81
2021/08/24 01:23:49;;;;;;;5.13;3.50;;;14.20;99.90;;;;;;6159940;28;20027;-83
2021/08/24 01:26:58;;;;;;;5.10;4.60;;;16.30;99.90;;;;;;6177138;28;20066;-83
2021/08/24 01:30:17;;;;;;;4.40;4.00;;;16.30;99.90;;;;;;6159805;28;20027;-79
2021/08/24 01:33:23;;;;;;;4.57;4.13;;;16.40;99.90;;;;;;6176714;28;20038;-79
2021/08/24 01:36:31;;;;;;;4.18;3.78;;;16.50;99.90;;;;;;6176469;28;20102;-81
2021/08/24 01:39:47;;;;;;;4.95;4.18;;;16.40;99.90;;;;;;6159580;28;20485;-80
2021/08/24 01:42:47;;;;;;;4.45;4.00;;;16.40;99.90;;;;;;6160693;28;20046;-83
2021/08/24 01:45:54;;;;;;;5.25;3.88;;;16.40;99.90;;;;;;6159106;28;20031;-85
2021/08/24 01:48:55;;;;;;;6.82;4.05;;;16.40;99.90;;;;;;6159701;28;20038;-79
2021/08/24 01:51:56;;;;;;;4.20;3.80;;;16.40;99.90;;;;;;6142998;28;20077;-81
2021/08/24 01:54:59;;;;;;;6.67;4.00;;;16.40;99.90;;;;;;6159316;28;20089;-83
2021/08/24 01:58:03;;;;;;;;;;;16.50;99.90;;;;;;6159796;28;20265;-80
2021/08/24 02:01:04;;;;;;;5.03;3.70;;;16.20;99.90;;;;;;6143043;28;19910;-83
2021/08/24 02:04:21;;;;;;;7.05;4.00;;;16.40;99.90;;;;;;6159058;28;20041;-84
2021/08/24 02:07:22;;;;;;;4.95;4.00;;;16.40;99.90;;;;;;6160907;28;20417;-84
2021/08/24 02:10:23;;;;;;;4.70;4.13;;;16.50;99.90;;;;;;6175835;28;20026;-83
2021/08/24 02:13:26;;;;;;;6.32;3.90;;;16.60;99.90;;;;;;6158448;28;20100;-81
2021/08/24 02:16:26;;;;;;;5.35;4.30;;;16.50;99.90;;;;;;6158834;28;20054;-84
2021/08/24 02:19:29;;;;;;;4.80;4.28;;;16.40;99.90;;;;;;6158713;28;20029;-80
2021/08/24 02:22:32;;;;;;;4.25;3.85;;;16.40;99.90;;;;;;6158691;28;20046;-83
2021/08/24 02:25:35;;;;;;;5.43;4.10;;;16.30;99.90;;;;;;6158467;28;20078;-80
2021/08/24 02:28:38;;;;;;;5.40;4.07;;;16.20;99.90;;;;;;6158340;28;20026;-82
2021/08/24 02:31:41;;;;;;;4.28;3.58;;;16.20;99.90;;;;;;6158342;28;20022;-81
2021/08/24 02:35:03;;;;;;;5.00;4.22;;;16.10;99.90;;;;;;6157914;28;20067;-83
2021/08/24 02:38:23;;;;;;;5.00;4.50;;;16.00;99.90;;;;;;6141925;28;20055;-80
2021/08/24 02:41:33;;;;;;;6.05;4.03;;;16.00;99.90;;;;;;6157806;28;20034;-82
2021/08/24 02:44:37;;;;;;;6.50;4.85;;;15.90;99.90;;;;;;6159233;28;20023;-81
2021/08/24 02:47:38;;;;;;;6.78;4.97;;;15.90;99.90;;;;;;6158182;28;20373;-79
2021/08/24 02:50:40;;;;;;;5.22;4.20;;;15.90;99.90;;;;;;6158037;28;20038;-82
2021/08/24 02:53:40;;;;;;;4.78;4.03;;;15.80;99.90;;;;;;6141985;28;20027;-82
2021/08/24 02:56:41;;;;;;;5.93;4.10;;;16.00;99.90;;;;;;6141943;28;20446;-83
2021/08/24 02:59:41;;;;;;;5.82;4.13;;;15.80;99.90;;;;;;6175165;28;20029;-80
2021/08/24 03:02:42;;;;;;;7.15;3.95;;;15.80;99.90;;;;;;6156805;28;20088;-83
2021/08/24 03:05:43;;;;;;;7.80;5.45;;;16.20;99.90;;;;;;6174741;28;20027;-81
2021/08/24 03:08:43;;;;;;;6.30;3.83;;;15.70;99.90;;;;;;6157858;28;20057;-83
2021/08/24 03:11:47;;;;;;;7.45;3.95;;;15.80;99.90;;;;;;6157693;28;20074;-83
2021/08/24 03:15:12;;;;;;;7.57;3.90;;;15.80;99.90;;;;;;6141787;28;20058;-81
2021/08/24 03:18:23;;;;;;;5.88;4.40;;;15.70;99.90;;;;;;6155203;28;20038;-79
2021/08/24 03:21:25;;;;;;;4.85;3.83;;;15.60;99.90;;;;;;6157733;28;20055;-80
2021/08/24 03:24:27;;;;;;;7.20;4.20;;;15.60;99.90;;;;;;6157696;28;20038;-80
2021/08/24 03:27:27;;;;;;;5.35;3.97;;;15.40;99.90;;;;;;6157787;28;20369;-79
2021/08/24 03:30:28;;;;;;;6.03;3.50;;;15.50;99.90;;;;;;6157529;28;20117;-83
2021/08/24 03:33:28;;;;;;;5.20;4.18;;;15.40;99.90;;;;;;6157200;28;20081;-79
2021/08/24 03:36:29;;;;;;;4.85;3.88;;;15.50;99.90;;;;;;6157440;28;20042;-84
2021/08/24 03:39:30;;;;;;;5.30;4.25;;;15.30;99.90;;;;;;6149423;29;20070;-83
2021/08/24 03:42:30;;;;;;;4.97;4.00;;;15.10;99.90;;;;;;6150954;29;20529;-80
2021/08/24 03:45:31;;;;;;;5.45;4.00;;;15.10;99.90;;;;;;6149187;28;20397;-80
2021/08/24 03:48:32;;;;;;;5.47;4.70;;;15.10;99.90;;;;;;6133686;29;20397;-83
2021/08/24 03:51:32;;;;;;;5.15;3.97;;;14.80;99.90;;;;;;6150584;28;20024;-79
2021/08/24 03:54:33;;;;;;;5.57;4.32;;;14.80;99.90;;;;;;6149464;29;20058;-80
2021/08/24 03:57:34;;;;;;;9.60;4.22;;;;;;;;;;6150224;28;20031;-84
2021/08/24 04:00:34;;;;;;;5.35;4.10;;;14.50;99.90;;;;;;6150141;29;20453;-81
2021/08/24 04:03:35;;;;;;;5.80;4.03;;;14.50;99.90;;;;;;6149340;29;20024;-82
2021/08/24 04:06:35;;;;;;;5.78;4.38;;;14.40;99.90;;;;;;6150257;28;20023;-84
2021/08/24 04:09:36;;;;;;;5.65;4.15;;;14.40;99.90;;;;;;6149512;29;20030;-80
2021/08/24 04:12:37;;;;;;;7.30;4.47;;;14.30;99.90;;;;;;6150229;28;20024;-79
2021/08/24 04:15:37;;;;;;;5.85;4.13;;;14.20;99.90;;;;;;6153451;28;20338;-80
2021/08/24 04:18:38;;;;;;;4.88;4.00;;;14.00;99.90;;;;;;6154402;29;20035;-85
2021/08/24 04:21:39;;;;;;;9.05;4.20;;;14.20;99.90;;;;;;6154630;28;20366;-80
2021/08/24 04:24:40;;;;;;;6.10;5.18;;;14.20;99.90;;;;;;6153423;28;20082;-82
2021/08/24 04:27:41;;;;;;;7.40;4.88;;;13.70;99.90;;;;;;6153156;28;20058;-79
2021/08/24 04:30:41;;;;;;;4.72;4.22;;;14.10;99.90;;;;;;6152955;29;20065;-83
2021/08/24 04:33:42;;;;;;;5.90;4.10;;;13.90;99.90;;;;;;6154373;29;20054;-79
2021/08/24 04:36:43;;;;;;;5.78;3.92;;;13.80;99.90;;;;;;6152996;29;20063;-82
2021/08/24 04:39:43;;;;;;;4.95;3.72;;;13.90;99.90;;;;;;6152439;29;20113;-83
2021/08/24 04:42:44;;;;;;;4.75;3.70;;;13.90;99.90;;;;;;6152754;28;20595;-79
2021/08/24 04:45:44;;;;;;;5.68;3.85;;;14.10;99.90;;;;;;6153761;28;20034;-80
2021/08/24 04:48:45;;;;;;;6.07;3.97;;;14.10;99.90;;;;;;6154458;29;20115;-83
2021/08/24 04:51:46;;;;;;;7.80;4.20;;;;;;;;;;6152430;29;20517;-80
2021/08/24 04:54:46;;;;;;;6.03;4.47;;;14.10;99.90;;;;;;6153742;29;20370;-81
2021/08/24 04:57:47;;;;;;;5.57;3.92;;;;;;;;;;6153600;29;20094;-84
2021/08/24 05:00:48;;;;;;;5.45;4.18;;;;;;;;;;6154204;29;20031;-79
2021/08/24 05:03:49;;;;;;;6.57;4.03;;;14.20;99.90;;;;;;6153849;29;20023;-78
2021/08/24 05:06:50;;;;;;;6.60;4.15;;;14.30;99.90;;;;;;6152258;29;20038;-83
2021/08/24 05:09:50;;;;;;;5.75;3.80;;;14.30;99.90;;;;;;6153512;28;20019;-79
2021/08/24 05:12:51;;;;;;;4.40;3.50;;;14.70;99.90;;;;;;6153432;28;20027;-83
2021/08/24 05:15:52;;;;;;;5.03;3.70;;;15.00;99.90;;;;;;6152024;29;20438;-80
2021/08/24 05:18:52;;;;;;;4.57;3.67;;;15.10;99.90;;;;;;6153330;29;20051;-84
2021/08/24 05:21:53;;;;;;;5.47;3.60;;;;;;;;;;6151975;29;20047;-80
2021/08/24 05:24:54;;;;;;;6.30;4.32;;;15.80;99.90;;;;;;6152442;28;20028;-79
2021/08/24 05:27:55;;;;;;;5.78;3.67;;;16.50;99.90;;;;;;6153041;28;20373;-83
2021/08/24 05:30:55;;;;;;;5.78;3.40;;;16.70;99.90;;;;;;6151842;29;20027;-84
2021/08/24 05:33:56;;;;;;;4.22;3.78;;;;;;;;;;6152576;29;20059;-82
2021/08/24 05:36:57;;;;;;;6.50;3.88;;;17.30;99.90;;;;;;6152919;28;20035;-81
2021/08/24 05:39:58;;;;;;;4.40;3.65;;;;;;;;;;6176760;28;20051;-83
2021/08/24 05:42:58;;;;;;;5.10;4.10;;;17.90;99.90;;;;;;6176702;28;20093;-80
2021/08/24 05:46:09;;;;;;;4.60;3.60;;;18.40;99.90;;;;;;6176513;28;20042;-80
2021/08/24 05:49:10;;;;;;;5.22;3.50;;;18.70;99.90;;;;;;6176732;28;20433;-80
2021/08/24 05:52:11;;;;;;;4.97;3.58;;;18.80;99.90;;;;;;6176352;28;20027;-82
2021/08/24 05:55:11;;;;;;;3.75;3.38;;;19.30;99.90;;;;;;6159061;28;20031;-84
2021/08/24 05:58:12;;;;;;;4.30;3.58;;;19.50;99.90;;;;;;6159161;28;20023;-80
2021/08/24 06:01:24;;;;;;;5.88;3.90;;;19.50;99.60;;;;;;6176240;28;20027;-80
2021/08/24 06:04:27;;;;;;;6.25;3.58;;;20.30;99.90;;;;;;6175939;28;20111;-80
2021/08/24 06:07:28;;;;;;;;;;;20.40;97.60;;;;;;6159471;28;20026;-80
2021/08/24 06:10:29;;;;;;;4.05;3.30;;;21.10;99.90;;;;;;6176087;28;20256;-81
2021/08/24 06:13:29;;;;;;;6.53;3.50;;;21.00;96.30;;;;;;6142513;28;20023;-81
2021/08/24 06:16:30;;;;;;;3.97;3.28;;;;;;;;;;6176082;28;20445;-85
2021/08/24 06:19:31;;;;;;;4.28;3.60;;;20.80;94.10;;;;;;6175941;28;20414;-82
2021/08/24 06:22:31;;;;;;;4.85;3.50;;;21.10;95.80;;;;;;6158344;28;20041;-82
2021/08/24 06:25:32;;;;;;;5.03;3.55;;;21.40;99.90;;;;;;6175784;28;20109;-81
2021/08/24 06:28:32;;;;;;;4.88;3.30;;;21.30;94.50;;;;;;6175933;28;20062;-82
2021/08/24 06:31:38;;;;;;;4.88;3.55;;;;;;;;;;6175740;28;20019;-82
2021/08/24 06:34:39;;;;;;;4.15;3.30;;;21.50;91.80;;;;;;6159070;28;20031;-85
2021/08/24 06:37:40;;;;;;;4.70;3.50;;;22.10;99.90;;;;;;6175228;28;20051;-80
2021/08/24 06:40:41;;;;;;;3.85;3.28;;;22.70;99.40;;;;;;6175310;28;20496;-83
2021/08/24 06:43:41;;;;;;;4.18;3.35;;;22.60;91.20;;;;;;6157853;28;20034;-81
2021/08/24 06:46:42;;;;;;;4.25;3.17;;;22.90;91.00;;;;;;6157968;28;20105;-80
2021/08/24 06:49:43;;;;;;;4.47;3.30;;;;;;;;;;6158100;28;20027;-82
2021/08/24 06:52:44;;;;;;;5.45;3.65;;;23.10;88.30;;;;;;6174931;28;20057;-81
2021/08/24 06:55:44;;;;;;;24.75;18.08;;;23.30;89.20;;;;;;6157861;28;20034;-81
2021/08/24 06:58:47;;;;;;;360.77;281.65;;;;;;;;;;6173978;28;20434;-81
2021/08/24 07:01:48;;;;;;;10.57;9.52;;;23.90;84.00;;;;;;6175029;28;20101;-81
2021/08/24 07:04:48;;;;;;;5.15;3.55;;;24.20;84.80;;;;;;6174797;28;20074;-81
2021/08/24 07:07:49;;;;;;;4.00;3.20;;;;;;;;;;6157787;28;20030;-81
2021/08/24 07:10:50;;;;;;;3.65;3.05;;;24.30;79.50;;;;;;6175140;28;20048;-86
2021/08/24 07:13:50;;;;;;;4.38;3.45;;;24.40;81.40;;;;;;6157466;28;20027;-81
2021/08/24 07:16:51;;;;;;;4.72;3.13;;;24.80;81.20;;;;;;6175368;28;20031;-80
2021/08/24 07:19:52;;;;;;;4.20;2.97;;;24.90;80.00;;;;;;6157695;28;20033;-83
2021/08/24 07:22:53;;;;;;;4.68;3.03;;;24.80;78.80;;;;;;6157400;28;20062;-81
2021/08/24 07:25:53;;;;;;;3.47;2.67;;;24.20;82.70;;;;;;6174856;28;20019;-81
2021/08/24 07:28:54;;;;;;;7.05;4.05;;;24.10;82.60;;;;;;6174635;28;20023;-81
2021/08/24 07:31:54;;;;;;;5.38;3.10;;;24.10;82.10;;;;;;6175222;28;20026;-83
2021/08/24 07:34:55;;;;;;;6.10;3.10;;;;;;;;;;6174376;28;20026;-81
2021/08/24 07:37:56;;;;;;;4.03;3.35;;;23.10;93.30;;;;;;6174485;28;20121;-80
2021/08/24 07:40:57;;;;;;;6.50;3.60;;;23.20;85.80;;;;;;6174259;28;20098;-81
2021/08/24 07:43:57;;;;;;;5.80;3.33;;;23.80;83.60;;;;;;6157482;28;20022;-81
2021/08/24 07:46:58;;;;;;;5.72;3.45;;;24.00;83.70;;;;;;6174648;28;20476;-83
2021/08/24 07:49:59;;;;;;;4.07;3.22;;;23.70;93.40;;;;;;6178655;28;20050;-79
2021/08/24 07:53:00;;;;;;;4.15;3.40;;;23.50;95.00;;;;;;6179024;28;20106;-81
2021/08/24 07:56:04;;;;;;;4.65;3.30;;;23.50;83.50;;;;;;6145630;28;20035;-85
2021/08/24 07:59:05;;;;;;;3.28;2.97;;;23.40;95.60;;;;;;6146055;28;20027;-83
2021/08/24 08:02:06;;;;;;;6.25;3.53;;;23.40;84.80;;;;;;6161727;28;20041;-82
2021/08/24 08:05:07;;;;;;;4.53;3.67;;;23.90;94.00;;;;;;6145580;28;20023;-81
2021/08/24 08:08:08;;;;;;;6.33;3.63;;;23.90;82.50;;;;;;6162140;28;20118;-81
2021/08/24 08:11:08;;;;;;;5.55;3.50;;;23.40;83.40;;;;;;6180297;28;20031;-83
2021/08/24 08:14:12;;;;;;;4.28;3.20;;;;;;;;;;6178897;28;20476;-80
2021/08/24 08:17:16;;;;;;;3.53;3.17;;;23.90;79.90;;;;;;6161787;28;20114;-80
2021/08/24 08:20:16;;;;;;;7.13;3.30;;;23.90;84.20;;;;;;6144994;28;20034;-83
2021/08/24 08:23:18;;;;;;;5.43;2.92;;;23.90;86.00;;;;;;6178580;28;20069;-86
2021/08/24 08:26:18;;;;;;;7.78;3.30;;;23.60;82.70;;;;;;6161177;28;20030;-84
2021/08/24 08:29:19;;;;;;;3.78;3.35;;;24.50;82.60;;;;;;6161465;28;20038;-82
2021/08/24 08:32:30;;;;;;;5.38;3.13;;;23.40;94.40;;;;;;6178492;28;20031;-81
2021/08/24 08:35:31;;;;;;;3.72;3.25;;;23.60;83.40;;;;;;6178390;28;20026;-80
2021/08/24 08:38:32;;;;;;;4.03;3.15;;;;;;;;;;6160834;28;20145;-81
2021/08/24 08:42:05;;;;;;;5.22;2.70;;;22.90;81.80;;;;;;6177865;28;20355;-80
2021/08/24 08:45:18;;;;;;;3.85;3.03;;;22.80;83.80;;;;;;6161346;28;20031;-84
2021/08/24 08:48:38;;;;;;;5.22;3.00;;;22.90;82.60;;;;;;6161066;28;20033;-82
2021/08/24 08:51:53;;;;;;;3.55;3.03;;;23.50;79.40;;;;;;6160630;28;20421;-80
2021/08/24 08:55:08;;;;;;;3.70;3.00;;;23.50;80.00;;;;;;6178192;28;20073;-82
2021/08/24 08:58:28;;;;;;;3.67;2.92;;;23.90;79.30;;;;;;6161059;28;20073;-85
2021/08/24 09:01:59;;;;;;;4.68;3.22;;;24.40;81.20;;;;;;6160526;28;20034;-81
2021/08/24 09:05:00;;;;;;;4.03;3.08;;;24.20;76.20;;;;;;6163763;28;20031;-85
2021/08/24 09:08:01;;;;;;;3.73;3.03;;;24.30;80.20;;;;;;6160727;28;20085;-81
2021/08/24 09:11:01;;;;;;;3.35;3.00;;;24.20;80.50;;;;;;6144879;28;20034;-79
2021/08/24 09:14:13;;;;;;;3.08;2.78;;;24.10;82.90;;;;;;6160501;28;20019;-83
2021/08/24 09:17:16;;;;;;;4.88;3.42;;;24.40;94.50;;;;;;6161170;28;20025;-83
2021/08/24 09:20:32;;;;;;;5.10;2.85;;;24.40;81.40;;;;;;6177807;28;20027;-86
2021/08/24 09:23:32;;;;;;;3.75;2.90;;;25.00;81.70;;;;;;6177051;28;20034;-81
2021/08/24 09:26:47;;;;;;;3.67;3.08;;;24.20;79.60;;;;;;6176902;28;20105;-84
2021/08/24 09:29:49;;;;;;;2.70;2.50;;;24.40;76.20;;;;;;6177086;28;20251;-82
2021/08/24 09:32:49;;;;;;;3.80;3.08;;;24.90;77.60;;;;;;6159866;28;20022;-83
2021/08/24 09:35:50;;;;;;;3.47;2.80;;;24.70;78.10;;;;;;6159617;28;20342;-80
2021/08/24 09:38:55;;;;;;;3.47;2.67;;;24.80;79.00;;;;;;6151521;29;20043;-80
2021/08/24 09:42:06;;;;;;;2.92;2.60;;;25.20;72.00;;;;;;6151348;29;20071;-81
2021/08/24 09:45:28;;;;;;;3.95;2.80;;;25.10;77.00;;;;;;6151240;28;20406;-80
2021/08/24 09:48:30;;;;;;;4.55;2.47;;;25.40;73.40;;;;;;6152836;28;20082;-84
2021/08/24 09:52:06;;;;;;;4.15;2.70;;;24.80;75.80;;;;;;6151346;28;20029;-81
2021/08/24 09:55:11;;;;;;;3.00;2.70;;;24.40;75.80;;;;;;6151258;29;20038;-81
2021/08/24 09:58:20;;;;;;;5.88;2.92;;;24.30;78.70;;;;;;6151225;29;20442;-81
2021/08/24 10:01:20;;;;;;;5.40;2.60;;;24.00;79.60;;;;;;6152142;28;20078;-85
2021/08/24 10:04:21;;;;;;;3.05;2.70;;;23.50;82.00;;;;;;6151216;29;20458;-85
2021/08/24 10:07:44;;;;;;;4.68;3.17;;;22.80;82.90;;;;;;6135246;29;20117;-83
2021/08/24 10:10:45;;;;;;;3.65;3.03;;;22.00;83.30;;;;;;6151637;28;20462;-80
2021/08/24 10:13:46;;;;;;;3.83;3.42;;;21.90;86.70;;;;;;6134661;29;20058;-83
2021/08/24 10:16:48;;;;;;;4.70;3.00;;;21.80;87.50;;;;;;6152194;28;20031;-83
2021/08/24 10:19:49;;;;;;;5.32;2.92;;;22.40;86.10;;;;;;6150520;29;20110;-80
2021/08/24 10:22:51;;;;;;;3.85;3.30;;;23.70;80.30;;;;;;6150353;28;20042;-81
2021/08/24 10:25:53;;;;;;;3.72;3.13;;;23.50;81.10;;;;;;6150418;28;20019;-84
2021/08/24 10:28:58;;;;;;;2.97;2.70;;;24.10;80.10;;;;;;6150944;29;20470;-82
2021/08/24 10:32:02;;;;;;;4.57;3.40;;;24.10;80.00;;;;;;6150739;28;20026;-81
2021/08/24 10:35:15;;;;;;;3.40;3.10;;;23.80;80.60;;;;;;6150702;29;20023;-80
2021/08/24 10:38:16;;;;;;;4.40;3.35;;;23.80;78.90;;;;;;6150194;28;20071;-80
2021/08/24 10:41:29;;;;;;;6.30;3.35;;;24.00;92.90;;;;;;6151782;28;20027;-82
2021/08/24 10:44:41;;;;;;;4.93;3.35;;;23.90;79.50;;;;;;6150343;28;20043;-89
2021/08/24 10:47:41;;;;;;;5.03;3.23;;;24.00;80.40;;;;;;6150449;29;20015;-88
2021/08/24 10:51:00;;;;;;;3.60;3.07;;;24.50;79.50;;;;;;6151925;29;20450;-90
2021/08/24 10:54:33;;;;;;;4.53;3.53;;;24.70;77.70;;;;;;6150457;29;20027;-83
2021/08/24 10:57:59;;;;;;;3.30;3.00;;;24.60;76.40;;;;;;6101103;29;20395;-84
2021/08/24 11:01:05;;;;;;;5.03;2.97;;;24.20;80.40;;;;;;6100691;29;20063;-81
2021/08/24 11:04:17;;;;;;;4.45;3.30;;;23.40;78.90;;;;;;6085921;29;20032;-81
2021/08/24 11:07:32;;;;;;;4.15;3.30;;;23.70;79.80;;;;;;6101163;29;20042;-82
2021/08/24 11:10:57;;;;;;;5.68;3.42;;;23.80;80.60;;;;;;6069902;29;20024;-81
2021/08/24 11:14:17;;;;;;;4.05;3.47;;;24.00;77.80;;;;;;6100670;29;20036;-84
2021/08/24 11:17:27;;;;;;;5.30;3.50;;;24.00;77.30;;;;;;6086542;29;20024;-85
2021/08/24 11:20:52;;;;;;;3.88;3.08;;;23.80;79.80;;;;;;6085761;29;20135;-82
2021/08/24 11:24:05;;;;;;;3.47;2.95;;;23.70;79.70;;;;;;6102951;29;20382;-80
2021/08/24 11:27:44;;;;;;;4.75;3.22;;;24.10;81.60;;;;;;6089842;29;20035;-82
2021/08/24 11:30:53;;;;;;;3.30;3.00;;;24.30;77.80;;;;;;6092360;29;20036;-83
2021/08/24 11:34:15;;;;;;;5.15;3.47;;;24.10;78.10;;;;;;6114316;29;20059;-80
2021/08/24 11:37:26;;;;;;;4.30;3.42;;;24.30;80.40;;;;;;6156738;28;20031;-80
2021/08/24 11:40:43;;;;;;;4.05;3.13;;;23.60;81.20;;;;;;6146327;28;20054;-81
2021/08/24 11:43:54;;;;;;;4.00;3.05;;;23.50;79.80;;;;;;6162742;28;20037;-86
2021/08/24 11:47:02;;;;;;;4.60;3.25;;;22.90;83.50;;;;;;6163079;28;20462;-82
2021/08/24 11:50:07;;;;;;;3.50;3.20;;;22.40;81.80;;;;;;6146585;28;20536;-84
2021/08/24 11:53:29;;;;;;;4.53;3.25;;;22.20;85.00;;;;;;6161748;28;20074;-83
2021/08/24 11:56:41;;;;;;;3.58;3.17;;;21.90;84.40;;;;;;6164707;28;20409;-80
2021/08/24 11:59:45;;;;;;;3.92;3.45;;;21.50;85.40;;;;;;6179601;28;20413;-83
2021/08/24 12:02:47;;;;;;;3.70;2.97;;;21.30;87.60;;;;;;6178817;28;20031;-79
2021/08/24 12:05:51;;;;;;;5.10;3.05;;;21.10;89.30;;;;;;6178715;28;20127;-80
2021/08/24 12:08:54;;;;;;;3.40;3.03;;;20.90;90.10;;;;;;6178990;28;20589;-80
2021/08/24 12:11:54;;;;;;;6.30;3.30;;;20.80;90.00;;;;;;6161313;28;20445;-79
2021/08/24 12:15:03;;;;;;;3.97;3.20;;;20.90;90.30;;;;;;6161694;28;20034;-80
2021/08/24 12:18:18;;;;;;;4.15;3.58;;;20.70;89.00;;;;;;6178695;28;20456;-80
2021/08/24 12:21:29;;;;;;;3.80;3.40;;;20.80;90.30;;;;;;6178394;28;20054;-83
2021/08/24 12:24:30;;;;;;;3.97;3.00;;;20.90;90.70;;;;;;6145240;28;20031;-83
2021/08/24 12:27:31;;;;;;;4.88;3.15;;;20.90;90.60;;;;;;6178149;28;20465;-81
2021/08/24 12:30:51;;;;;;;3.70;3.05;;;21.10;91.30;;;;;;6178402;28;20497;-82
2021/08/24 12:33:52;;;;;;;3.35;3.05;;;20.90;89.50;;;;;;6163417;28;20464;-83
2021/08/24 12:36:53;;;;;;;5.30;3.05;;;21.20;90.70;;;;;;6178323;28;20035;-79
2021/08/24 12:39:54;;;;;;;3.20;2.90;;;;;;;;;;6177619;28;20055;-83
2021/08/24 12:43:01;;;;;;;3.80;3.00;;;21.40;88.80;;;;;;6178025;28;20294;-80
2021/08/24 12:46:23;;;;;;;3.88;3.47;;;21.30;90.00;;;;;;6177952;28;20037;-84
2021/08/24 12:49:29;;;;;;;3.42;3.13;;;21.30;90.00;;;;;;6160327;28;20409;-82
2021/08/24 12:52:51;;;;;;;4.22;3.50;;;21.30;90.00;;;;;;6160822;28;20050;-79
2021/08/24 12:55:51;;;;;;;3.50;3.20;;;21.20;90.10;;;;;;6177679;28;20042;-80
2021/08/24 12:58:52;;;;;;;3.58;3.28;;;21.20;90.50;;;;;;6160206;28;20062;-79
2021/08/24 13:02:11;;;;;;;3.50;2.83;;;21.00;90.80;;;;;;6160250;28;20094;-86
2021/08/24 13:05:12;;;;;;;5.13;3.28;;;20.60;90.40;;;;;;6177656;28;20097;-82
2021/08/24 13:08:26;;;;;;;3.55;3.00;;;20.40;90.80;;;;;;6177310;28;20470;-81
2021/08/24 13:11:27;;;;;;;5.15;3.30;;;20.20;90.40;;;;;;6160335;28;20026;-81
2021/08/24 13:14:43;;;;;;;4.63;3.00;;;20.30;92.60;;;;;;6177153;28;20029;-79
2021/08/24 13:17:47;;;;;;;4.03;3.35;;;20.30;91.50;;;;;;6177513;28;20436;-79
2021/08/24 13:20:48;;;;;;;3.80;3.28;;;20.40;92.20;;;;;;6160113;28;20081;-78
2021/08/24 13:23:50;;;;;;;2.87;2.67;;;20.70;92.00;;;;;;6160366;28;20121;-80
2021/08/24 13:26:53;;;;;;;3.28;2.90;;;20.80;91.60;;;;;;6159944;28;20265;-82
2021/08/24 13:29:54;;;;;;;3.10;2.75;;;20.80;90.80;;;;;;6160090;28;20101;-80
2021/08/24 13:32:56;;;;;;;3.40;3.10;;;21.00;90.80;;;;;;6158913;28;20382;-83
2021/08/24 13:36:03;;;;;;;6.97;3.00;;;21.20;90.40;;;;;;6176780;28;20033;-82
2021/08/24 13:39:05;;;;;;;4.35;2.83;;;21.20;90.50;;;;;;6159210;28;20038;-83
2021/08/24 13:42:05;;;;;;;3.23;2.87;;;21.30;89.80;;;;;;6176843;28;20031;-83
2021/08/24 13:45:06;;;;;;;3.40;3.00;;;21.20;90.00;;;;;;6159499;28;20405;-80
2021/08/24 13:48:07;;;;;;;3.65;3.17;;;21.30;88.80;;;;;;6158831;28;20038;-80
2021/08/24 13:51:08;;;;;;;3.28;2.95;;;21.10;89.70;;;;;;6176287;28;20081;-84
2021/08/24 13:54:09;;;;;;;4.27;2.80;;;20.90;90.50;;;;;;6176540;28;20026;-80
2021/08/24 13:57:13;;;;;;;3.38;2.63;;;20.70;90.60;;;;;;6142890;28;20329;-80
2021/08/24 14:00:17;;;;;;;3.97;2.78;;;20.60;90.70;;;;;;6159144;28;20023;-79
2021/08/24 14:03:18;;;;;;;3.65;2.60;;;20.50;90.80;;;;;;6158926;28;20071;-80
2021/08/24 14:06:38;;;;;;;3.30;2.80;;;20.60;91.00;;;;;;6159036;28;20023;-80
2021/08/24 14:09:44;;;;;;;3.10;2.80;;;20.70;90.70;;;;;;6176487;28;20038;-80
2021/08/24 14:12:51;;;;;;;5.57;3.13;;;20.80;91.20;;;;;;6158526;28;20476;-80
2021/08/24 14:15:53;;;;;;;3.63;3.10;;;20.90;91.30;;;;;;6158702;28;20053;-81
2021/08/24 14:18:56;;;;;;;3.30;2.78;;;21.00;90.80;;;;;;6175955;28;20479;-82
2021/08/24 14:21:57;;;;;;;3.30;3.00;;;20.90;90.40;;;;;;6158321;28;20073;-80
2021/08/24 14:24:58;;;;;;;4.15;3.28;;;20.90;90.90;;;;;;6158310;28;20022;-82
2021/08/24 14:28:01;;;;;;;4.28;3.10;;;21.10;91.10;;;;;;6158557;28;20027;-83
2021/08/24 14:31:02;;;;;;;3.42;3.13;;;21.20;91.10;;;;;;6142756;28;20449;-80
2021/08/24 14:34:17;;;;;;;4.03;3.47;;;21.00;91.30;;;;;;6158651;28;20443;-79
2021/08/24 14:37:22;;;;;;;4.18;3.70;;;21.00;90.10;;;;;;6175266;28;20050;-83
2021/08/24 14:40:27;;;;;;;3.45;3.03;;;20.60;90.10;;;;;;6175465;28;20054;-81
2021/08/24 14:43:28;;;;;;;6.60;3.63;;;20.90;91.90;;;;;;6158076;28;20038;-79
2021/08/24 14:46:35;;;;;;;4.05;3.30;;;20.90;91.10;;;;;;6159113;28;20054;-81
2021/08/24 14:49:36;;;;;;;3.45;3.15;;;20.80;90.60;;;;;;6160392;28;20117;-84
2021/08/24 14:52:41;;;;;;;5.07;2.90;;;20.90;91.70;;;;;;6158582;28;20026;-80
2021/08/24 14:55:42;;;;;;;4.50;3.30;;;20.80;90.30;;;;;;6158033;28;20078;-80
2021/08/24 14:58:42;;;;;;;4.57;3.20;;;20.90;91.00;;;;;;6141850;28;20031;-81
2021/08/24 15:02:20;;;;;;;3.90;3.50;;;21.00;90.80;;;;;;6157781;28;20036;-80
2021/08/24 15:05:54;;;;;;;8.70;3.78;;;21.00;88.50;;;;;;6175269;28;20030;-80
2021/08/24 15:08:55;;;;;;;3.65;3.28;;;21.20;91.30;;;;;;6100716;29;20078;-83
2021/08/24 15:11:56;;;;;;;3.85;3.30;;;21.20;91.00;;;;;;6100853;29;20040;-83
2021/08/24 15:15:13;;;;;;;3.43;3.13;;;21.10;91.20;;;;;;6085171;29;20451;-80
2021/08/24 15:18:28;;;;;;;4.15;3.00;;;21.00;91.50;;;;;;6086597;29;20063;-80
2021/08/24 15:21:36;;;;;;;5.15;3.58;;;20.80;90.70;;;;;;6086241;29;20122;-80
2021/08/24 15:24:45;;;;;;;4.30;3.13;;;20.70;91.50;;;;;;6084981;29;20036;-84
2021/08/24 15:27:47;;;;;;;3.70;3.13;;;20.70;91.30;;;;;;6101059;29;20111;-82
2021/08/24 15:31:06;;;;;;;;;;;20.80;91.40;;;;;;6085323;29;20047;-79
2021/08/24 15:34:07;;;;;;;4.05;3.30;;;20.70;90.60;;;;;;6100460;29;20300;-83
2021/08/24 15:37:11;;;;;;;4.10;3.42;;;20.70;92.80;;;;;;6084392;29;20051;-82
2021/08/24 15:40:14;;;;;;;4.00;3.28;;;20.50;91.90;;;;;;6100519;29;20035;-79
2021/08/24 15:43:27;;;;;;;3.50;3.20;;;20.60;92.20;;;;;;6083144;28;20069;-80
2021/08/24 15:46:29;;;;;;;4.68;3.10;;;20.60;92.10;;;;;;6157221;28;20022;-80
2021/08/24 15:49:30;;;;;;;5.18;3.35;;;20.70;91.90;;;;;;6157391;28;20022;-83
2021/08/24 15:52:35;;;;;;;4.72;3.15;;;20.80;92.50;;;;;;6141353;28;20525;-83
2021/08/24 15:55:47;;;;;;;7.28;3.65;;;21.00;92.00;;;;;;6157961;28;20182;-83
2021/08/24 15:58:47;;;;;;;3.92;3.40;;;20.70;92.10;;;;;;6157470;28;20027;-81
2021/08/24 16:01:49;;;;;;;4.10;3.67;;;20.60;92.30;;;;;;6174392;28;20039;-81
2021/08/24 16:04:50;;;;;;;5.30;3.80;;;20.50;93.00;;;;;;6157303;28;20031;-80
2021/08/24 16:07:54;;;;;;;3.72;3.22;;;20.30;93.00;;;;;;6174327;28;20034;-85
2021/08/24 16:10:55;;;;;;;4.90;3.50;;;20.30;93.30;;;;;;6160663;28;20098;-82